Time;durP1;ratioP1;P1;durP2;ratioP2;P2;SDS_P1;SDS_P2;PMS_P1;PMS_P2;Temp;Humidity;BMP_temperature;BMP_pressure;BME280_temperature;BME280_humidity;BME280_pressure;Samples;Min_cycle;Max_cycle;Signal;HPM_P1;HPM_P2
2022/06/30 00:00:07;;;;;;;0.43;0.43;;;26.90;92.90;;;;;;5058534;28;20126;-52
2022/06/30 00:02:38;;;;;;;0.30;0.30;;;26.90;92.90;;;;;;5048663;28;20499;-55
2022/06/30 00:05:07;;;;;;;0.40;0.40;;;26.90;92.90;;;;;;5047352;28;20515;-52
2022/06/30 00:07:34;;;;;;;0.45;0.45;;;26.90;92.90;;;;;;5059914;28;20378;-55
2022/06/30 00:10:03;;;;;;;;;;;26.90;92.90;;;;;;5049578;28;20056;-52
2022/06/30 00:12:30;;;;;;;0.22;0.22;;;26.90;92.90;;;;;;5050504;28;20387;-50
2022/06/30 00:14:57;;;;;;;0.80;0.60;;;26.90;92.90;;;;;;5051253;28;20049;-55
2022/06/30 00:17:24;;;;;;;1.00;0.60;;;26.80;92.90;;;;;;5057076;28;20156;-52
2022/06/30 00:19:52;;;;;;;0.30;0.30;;;26.90;92.90;;;;;;5052544;28;20048;-53
2022/06/30 00:22:19;;;;;;;0.20;0.20;;;26.80;92.90;;;;;;5051823;28;20060;-55
2022/06/30 00:24:47;;;;;;;0.38;0.38;;;26.90;92.90;;;;;;5048340;28;20044;-52
2022/06/30 00:27:14;;;;;;;0.25;0.25;;;26.90;92.90;;;;;;5052666;28;20083;-53
2022/06/30 00:29:41;;;;;;;0.28;0.28;;;26.80;93.10;;;;;;5063669;28;20052;-49
2022/06/30 00:32:09;;;;;;;0.30;0.30;;;26.90;92.90;;;;;;5048255;28;20155;-53
2022/06/30 00:34:37;;;;;;;0.93;0.55;;;26.90;92.90;;;;;;5047258;28;20053;-53
2022/06/30 00:37:04;;;;;;;0.90;0.80;;;26.80;92.90;;;;;;5047950;28;20043;-54
2022/06/30 00:39:32;;;;;;;2.65;1.17;;;26.80;92.90;;;;;;5047453;28;20056;-51
2022/06/30 00:41:59;;;;;;;2.17;1.00;;;26.80;92.90;;;;;;5058396;28;20354;-53
2022/06/30 00:44:27;;;;;;;;;;;26.80;92.90;;;;;;5054421;28;20045;-52
2022/06/30 00:46:54;;;;;;;0.20;0.20;;;26.80;92.90;;;;;;5056663;28;19920;-54
2022/06/30 00:49:21;;;;;;;;;;;26.80;92.90;;;;;;5053123;28;20057;-54
2022/06/30 00:51:49;;;;;;;0.65;0.65;;;26.80;92.90;;;;;;5048230;28;19928;-54
2022/06/30 00:54:18;;;;;;;0.40;0.40;;;26.80;92.90;;;;;;5059636;28;20052;-54
2022/06/30 00:56:46;;;;;;;0.30;0.30;;;26.80;92.90;;;;;;5065115;28;20372;-52
2022/06/30 00:59:16;;;;;;;0.22;0.22;;;26.80;92.90;;;;;;5049757;28;20541;-55
2022/06/30 01:01:44;;;;;;;0.57;0.57;;;26.80;92.90;;;;;;5064579;28;20399;-50
2022/06/30 01:04:16;;;;;;;3.10;0.77;;;26.80;92.90;;;;;;5046396;28;20155;-56
2022/06/30 01:06:46;;;;;;;0.30;0.30;;;26.80;92.90;;;;;;5048706;28;20045;-55
2022/06/30 01:12:41;;;;;;;3.42;0.65;;;26.70;92.90;;;;;;5047830;28;20063;-54
2022/06/30 01:14:52;;;;;;;0.28;0.28;;;26.80;92.90;;;;;;5052727;28;20052;-52
2022/06/30 01:17:20;;;;;;;0.85;0.70;;;26.80;92.90;;;;;;5057504;28;20056;-51
2022/06/30 01:19:54;;;;;;;0.52;0.52;;;26.70;92.80;;;;;;5056474;28;20431;-54
2022/06/30 01:22:22;;;;;;;0.88;0.68;;;26.80;92.90;;;;;;5055526;28;20044;-53
2022/06/30 01:24:49;;;;;;;0.30;0.30;;;26.80;92.90;;;;;;5049586;28;20059;-54
2022/06/30 01:27:17;;;;;;;0.20;0.20;;;26.80;92.90;;;;;;5050961;28;20133;-52
2022/06/30 01:29:45;;;;;;;2.50;1.02;;;26.80;92.80;;;;;;5051889;28;20045;-55
2022/06/30 01:32:12;;;;;;;0.20;0.20;;;26.80;92.80;;;;;;5050986;28;20053;-57
2022/06/30 01:34:43;;;;;;;0.28;0.28;;;26.80;92.80;;;;;;5050523;28;20049;-56
2022/06/30 01:37:10;;;;;;;;;;;26.70;92.80;;;;;;5052545;28;20049;-57
2022/06/30 01:39:37;;;;;;;3.22;2.08;;;26.80;92.80;;;;;;5051127;28;19932;-55
2022/06/30 01:42:05;;;;;;;;;;;26.80;92.90;;;;;;5066003;28;20055;-55
2022/06/30 01:44:32;;;;;;;0.45;0.45;;;26.70;92.80;;;;;;5055093;28;20457;-55
2022/06/30 01:46:59;;;;;;;;;;;26.70;92.80;;;;;;5050287;28;20148;-54
2022/06/30 01:49:27;;;;;;;;;;;26.70;92.80;;;;;;5051295;28;19925;-55
2022/06/30 01:51:54;;;;;;;1.17;0.77;;;26.70;92.80;;;;;;5051782;28;20011;-56
2022/06/30 01:54:23;;;;;;;0.45;0.45;;;26.70;92.80;;;;;;5049425;28;20524;-54
2022/06/30 01:56:51;;;;;;;0.20;0.20;;;26.70;92.80;;;;;;5052080;28;20155;-55
2022/06/30 01:59:18;;;;;;;0.75;0.50;;;26.80;92.80;;;;;;5054907;28;20079;-56
2022/06/30 02:01:45;;;;;;;0.68;0.68;;;26.70;92.80;;;;;;5054592;28;20051;-53
2022/06/30 02:06:59;;;;;;;0.30;0.30;;;26.70;92.80;;;;;;5050576;28;20056;-52
2022/06/30 02:09:26;;;;;;;0.50;0.50;;;26.70;92.80;;;;;;5050561;28;20417;-54
2022/06/30 02:12:44;;;;;;;0.20;0.20;;;26.70;92.80;;;;;;5051340;28;20048;-52
2022/06/30 02:14:40;;;;;;;0.30;0.30;;;26.70;92.80;;;;;;5054230;28;20559;-54
2022/06/30 02:17:08;;;;;;;0.75;0.57;;;26.70;92.80;;;;;;5050203;28;20045;-54
2022/06/30 02:19:35;;;;;;;0.30;0.30;;;26.70;92.80;;;;;;5051996;28;20044;-53
2022/06/30 02:22:03;;;;;;;0.20;0.20;;;26.70;92.80;;;;;;5049363;28;20052;-49
2022/06/30 02:24:30;;;;;;;0.25;0.25;;;26.70;92.80;;;;;;5051155;28;20053;-55
2022/06/30 02:26:57;;;;;;;0.20;0.20;;;26.70;92.80;;;;;;5049867;28;20048;-52
2022/06/30 02:29:25;;;;;;;;;;;26.70;92.80;;;;;;5050045;28;20053;-54
2022/06/30 02:31:52;;;;;;;2.08;0.85;;;26.70;92.80;;;;;;5050771;28;19998;-52
2022/06/30 02:34:20;;;;;;;0.63;0.47;;;26.70;92.80;;;;;;5049537;28;20544;-53
2022/06/30 02:36:48;;;;;;;0.30;0.30;;;26.70;92.80;;;;;;5049836;28;20215;-52
2022/06/30 02:39:15;;;;;;;0.60;0.52;;;26.70;92.80;;;;;;5050188;28;20053;-50
2022/06/30 02:41:42;;;;;;;0.75;0.52;;;26.70;92.80;;;;;;5049224;28;20052;-51
2022/06/30 02:44:10;;;;;;;0.28;0.28;;;26.70;92.80;;;;;;5055055;28;20041;-53
2022/06/30 02:46:37;;;;;;;0.30;0.30;;;26.70;92.80;;;;;;5054271;28;21045;-55
2022/06/30 02:49:05;;;;;;;0.45;0.45;;;26.70;92.80;;;;;;5051354;28;20044;-54
2022/06/30 02:51:32;;;;;;;0.20;0.20;;;26.70;92.80;;;;;;5054645;28;20049;-52
2022/06/30 02:53:59;;;;;;;;;;;26.70;92.80;;;;;;5049481;28;20064;-53
2022/06/30 02:56:27;;;;;;;0.38;0.38;;;26.70;92.80;;;;;;5062430;28;19924;-53
2022/06/30 02:58:54;;;;;;;0.20;0.20;;;26.60;92.80;;;;;;5053458;28;20692;-53
2022/06/30 03:01:21;;;;;;;1.45;0.85;;;26.60;92.80;;;;;;5055372;28;20060;-53
2022/06/30 03:03:49;;;;;;;2.63;1.48;;;26.60;92.80;;;;;;5049114;28;20068;-55
2022/06/30 03:06:16;;;;;;;0.22;0.22;;;26.60;92.80;;;;;;5049430;28;20508;-51
2022/06/30 03:08:43;;;;;;;0.80;0.80;;;26.60;92.80;;;;;;5048761;28;20052;-54
2022/06/30 03:11:16;;;;;;;1.05;0.57;;;26.60;92.80;;;;;;5055115;28;20063;-53
2022/06/30 03:14:01;;;;;;;0.52;0.52;;;26.60;92.80;;;;;;5060289;28;20052;-55
2022/06/30 03:16:28;;;;;;;0.40;0.40;;;26.60;92.80;;;;;;5050517;28;20052;-53
2022/06/30 03:18:56;;;;;;;0.60;0.47;;;26.60;92.80;;;;;;5048818;28;20499;-50
2022/06/30 03:21:23;;;;;;;0.52;0.52;;;26.60;92.80;;;;;;5048019;28;20136;-55
2022/06/30 03:23:50;;;;;;;0.35;0.35;;;26.60;92.80;;;;;;5066182;28;20056;-53
2022/06/30 03:26:18;;;;;;;0.40;0.40;;;26.60;92.80;;;;;;5067113;28;20048;-53
2022/06/30 03:28:45;;;;;;;0.85;0.38;;;26.60;93.00;;;;;;5057818;28;20522;-52
2022/06/30 03:31:12;;;;;;;1.25;0.73;;;26.60;92.80;;;;;;5048846;28;20411;-54
2022/06/30 03:33:40;;;;;;;1.25;0.73;;;26.60;92.80;;;;;;5055220;28;20053;-51
2022/06/30 03:36:07;;;;;;;0.20;0.20;;;26.60;92.80;;;;;;5048726;28;20420;-55
2022/06/30 03:38:34;;;;;;;0.20;0.20;;;26.60;92.80;;;;;;5048880;28;20057;-54
2022/06/30 03:41:02;;;;;;;0.90;0.73;;;26.60;92.80;;;;;;5048748;28;20040;-55
2022/06/30 03:43:29;;;;;;;0.73;0.73;;;26.60;92.80;;;;;;5051673;28;20047;-54
2022/06/30 03:45:56;;;;;;;0.43;0.43;;;26.60;92.80;;;;;;5048590;28;20055;-50
2022/06/30 03:48:24;;;;;;;0.30;0.30;;;26.60;92.80;;;;;;5048286;28;20045;-49
2022/06/30 03:50:51;;;;;;;3.72;1.20;;;26.60;93.10;;;;;;5048453;28;20061;-51
2022/06/30 03:53:18;;;;;;;0.43;0.43;;;26.60;92.80;;;;;;5049133;28;20060;-50
2022/06/30 03:55:46;;;;;;;0.32;0.32;;;26.60;92.80;;;;;;5050283;28;20056;-50
2022/06/30 03:58:13;;;;;;;0.40;0.40;;;26.60;92.80;;;;;;5063113;28;20040;-53
2022/06/30 04:00:40;;;;;;;1.75;0.73;;;26.60;92.80;;;;;;5061986;28;20064;-49
2022/06/30 04:03:08;;;;;;;2.63;0.63;;;26.60;92.80;;;;;;5048853;28;20053;-51
2022/06/30 04:05:35;;;;;;;0.40;0.40;;;26.60;92.80;;;;;;5049147;28;20052;-52
2022/06/30 04:08:03;;;;;;;0.20;0.20;;;26.60;92.80;;;;;;5049239;28;20045;-50
2022/06/30 04:10:30;;;;;;;0.30;0.30;;;26.60;92.80;;;;;;5050036;28;20040;-52
2022/06/30 04:12:57;;;;;;;0.35;0.35;;;26.60;92.80;;;;;;5058930;28;20389;-53
2022/06/30 04:15:25;;;;;;;0.30;0.30;;;26.60;92.80;;;;;;5055560;28;20553;-51
2022/06/30 04:17:52;;;;;;;0.28;0.28;;;26.60;93.00;;;;;;5047298;28;20055;-53
2022/06/30 04:20:20;;;;;;;0.32;0.32;;;26.50;92.70;;;;;;5052197;28;20044;-51
2022/06/30 04:22:50;;;;;;;0.20;0.20;;;26.50;92.80;;;;;;5056817;28;20059;-55
2022/06/30 04:25:18;;;;;;;0.30;0.30;;;26.60;92.80;;;;;;5048388;28;20044;-52
2022/06/30 04:27:51;;;;;;;0.40;0.40;;;26.50;92.80;;;;;;5053985;28;20059;-52
2022/06/30 04:33:06;;;;;;;0.40;0.25;;;26.50;92.80;;;;;;5053479;28;20534;-55
2022/06/30 04:35:35;;;;;;;0.70;0.47;;;26.50;93.10;;;;;;5048956;28;20627;-54
2022/06/30 04:38:03;;;;;;;0.73;0.73;;;26.50;92.80;;;;;;5047196;28;20056;-53
2022/06/30 04:43:17;;;;;;;0.35;0.35;;;26.60;92.80;;;;;;5048648;28;20052;-52
2022/06/30 04:45:44;;;;;;;;;;;26.60;92.80;;;;;;5051122;28;20049;-53
2022/06/30 04:48:11;;;;;;;1.15;1.00;;;26.60;92.70;;;;;;5046974;28;19948;-53
2022/06/30 04:50:42;;;;;;;1.70;1.30;;;26.60;92.80;;;;;;5058297;28;20052;-49
2022/06/30 04:53:10;;;;;;;0.38;0.38;;;26.60;92.80;;;;;;5057713;28;20392;-54
2022/06/30 04:55:37;;;;;;;0.65;0.65;;;26.60;92.80;;;;;;5053287;28;20048;-52
2022/06/30 04:58:05;;;;;;;1.98;0.98;;;26.50;93.00;;;;;;5047464;28;20040;-53
2022/06/30 05:00:32;;;;;;;0.40;0.40;;;26.50;92.80;;;;;;5050149;28;20053;-51
2022/06/30 05:03:00;;;;;;;;;;;26.50;92.80;;;;;;5047251;28;20045;-55
2022/06/30 05:05:27;;;;;;;0.35;0.35;;;26.60;92.80;;;;;;5047244;28;19921;-54
2022/06/30 05:07:54;;;;;;;0.40;0.40;;;26.60;92.80;;;;;;5047217;28;20519;-53
2022/06/30 05:10:22;;;;;;;0.28;0.28;;;26.60;92.80;;;;;;5049366;28;20048;-52
2022/06/30 05:12:49;;;;;;;0.30;0.30;;;26.50;92.80;;;;;;5056376;28;20052;-51
2022/06/30 05:15:16;;;;;;;0.20;0.20;;;26.60;92.90;;;;;;5060973;28;20055;-53
2022/06/30 05:17:44;;;;;;;0.50;0.50;;;26.60;92.80;;;;;;5046777;28;20040;-53
2022/06/30 05:20:11;;;;;;;1.35;0.68;;;26.50;92.80;;;;;;5046948;28;20060;-51
2022/06/30 05:22:39;;;;;;;;;;;26.50;92.80;;;;;;5049209;28;20059;-55
2022/06/30 05:27:53;;;;;;;1.55;0.65;;;26.50;92.90;;;;;;5053393;28;20420;-52
2022/06/30 05:30:20;;;;;;;0.28;0.28;;;26.50;92.80;;;;;;5051720;28;20047;-53
2022/06/30 05:32:47;;;;;;;0.20;0.20;;;26.50;92.80;;;;;;5046829;28;20045;-50
2022/06/30 05:35:15;;;;;;;0.20;0.20;;;26.50;92.80;;;;;;5050056;28;20068;-53
2022/06/30 05:37:42;;;;;;;0.20;0.20;;;26.50;92.80;;;;;;5054501;28;20055;-54
2022/06/30 05:40:10;;;;;;;2.05;0.73;;;26.50;92.80;;;;;;5048629;28;20079;-52
2022/06/30 05:42:37;;;;;;;0.43;0.43;;;26.50;92.90;;;;;;5050818;28;20043;-55
2022/06/30 05:45:05;;;;;;;0.20;0.20;;;26.50;92.90;;;;;;5050511;28;20045;-50
2022/06/30 05:47:33;;;;;;;0.28;0.28;;;26.50;92.80;;;;;;5046315;28;20049;-52
2022/06/30 05:50:00;;;;;;;0.50;0.50;;;26.50;92.90;;;;;;5060990;28;20047;-51
2022/06/30 05:52:27;;;;;;;0.98;0.50;;;26.50;92.80;;;;;;5047954;28;20068;-53
2022/06/30 05:54:56;;;;;;;0.20;0.20;;;26.50;92.90;;;;;;5047077;28;20064;-54
2022/06/30 05:57:23;;;;;;;0.60;0.60;;;26.50;92.80;;;;;;5048902;28;20057;-52
2022/06/30 05:59:50;;;;;;;0.25;0.25;;;26.60;92.90;;;;;;5049531;28;20049;-49
2022/06/30 06:02:18;;;;;;;0.57;0.57;;;26.60;92.90;;;;;;5046879;28;20136;-54
2022/06/30 06:04:45;;;;;;;1.45;0.70;;;26.50;92.90;;;;;;5059848;28;20048;-55
2022/06/30 06:07:12;;;;;;;0.20;0.20;;;26.60;92.90;;;;;;5050055;28;20040;-49
2022/06/30 06:09:40;;;;;;;0.43;0.43;;;26.60;92.90;;;;;;5051061;28;20060;-51
2022/06/30 06:12:08;;;;;;;0.60;0.60;;;26.60;92.90;;;;;;5052499;28;20056;-54
2022/06/30 06:14:35;;;;;;;1.20;0.75;;;26.60;92.90;;;;;;5051734;28;20112;-55
2022/06/30 06:17:02;;;;;;;0.55;0.55;;;26.60;92.80;;;;;;5050156;28;20061;-54
2022/06/30 06:19:30;;;;;;;8.35;0.73;;;26.60;92.90;;;;;;5050765;28;20121;-52
2022/06/30 06:21:57;;;;;;;0.40;0.40;;;26.60;92.80;;;;;;5050126;28;20359;-55
2022/06/30 06:24:24;;;;;;;1.20;0.98;;;26.60;92.90;;;;;;5052686;28;20045;-55
2022/06/30 06:26:52;;;;;;;0.35;0.35;;;26.60;92.90;;;;;;5051051;28;20052;-57
2022/06/30 06:29:20;;;;;;;1.10;0.40;;;26.60;92.90;;;;;;5049834;28;20610;-51
2022/06/30 06:31:48;;;;;;;0.45;0.45;;;26.60;92.90;;;;;;5052232;28;20052;-51
2022/06/30 06:34:15;;;;;;;;;;;26.50;92.90;;;;;;5049942;28;20053;-51
2022/06/30 06:36:42;;;;;;;0.25;0.25;;;26.60;92.90;;;;;;5050837;28;19925;-53
2022/06/30 06:39:10;;;;;;;0.20;0.20;;;26.60;92.90;;;;;;5054954;28;20440;-50
2022/06/30 06:41:37;;;;;;;0.20;0.20;;;26.60;92.90;;;;;;5060906;28;20048;-55
2022/06/30 06:44:05;;;;;;;0.32;0.32;;;26.60;92.90;;;;;;5049403;28;20060;-54
2022/06/30 06:46:32;;;;;;;;;;;26.60;92.90;;;;;;5049655;28;20048;-54
2022/06/30 06:49:01;;;;;;;;;;;26.60;92.90;;;;;;5049610;28;19924;-53
2022/06/30 06:51:28;;;;;;;1.73;0.75;;;26.60;92.90;;;;;;5073417;28;19921;-52
2022/06/30 06:53:56;;;;;;;0.52;0.40;;;26.60;92.90;;;;;;5048763;28;20048;-52
2022/06/30 06:56:24;;;;;;;;;;;26.60;92.90;;;;;;5051296;28;20048;-54
2022/06/30 06:58:59;;;;;;;0.70;0.70;;;26.60;92.90;;;;;;5054239;28;19935;-51
2022/06/30 07:01:27;;;;;;;0.80;0.60;;;26.60;93.00;;;;;;5056335;28;20531;-54
2022/06/30 07:03:55;;;;;;;0.30;0.30;;;26.60;93.00;;;;;;5049031;28;20052;-53
2022/06/30 07:06:22;;;;;;;0.47;0.47;;;26.60;93.00;;;;;;5050887;28;20041;-55
2022/06/30 07:08:50;;;;;;;0.30;0.30;;;26.60;93.00;;;;;;5060738;28;20052;-54
2022/06/30 07:11:17;;;;;;;0.22;0.22;;;26.60;93.00;;;;;;5056859;28;20059;-53
2022/06/30 07:13:45;;;;;;;0.65;0.65;;;26.60;93.00;;;;;;5052029;28;20049;-55
2022/06/30 07:16:12;;;;;;;0.73;0.52;;;26.60;93.00;;;;;;5051332;28;20055;-54
2022/06/30 07:18:40;;;;;;;0.40;0.40;;;26.60;93.00;;;;;;5049932;28;20071;-54
2022/06/30 07:21:07;;;;;;;0.30;0.30;;;26.60;93.10;;;;;;5053219;28;20048;-54
2022/06/30 07:23:34;;;;;;;0.50;0.50;;;26.60;93.10;;;;;;5049410;28;20055;-56
2022/06/30 07:26:02;;;;;;;0.32;0.32;;;26.60;93.10;;;;;;5066743;28;20091;-55
2022/06/30 07:28:30;;;;;;;0.50;0.50;;;26.60;93.10;;;;;;5054553;28;20068;-54
2022/06/30 07:31:17;;;;;;;;;;;26.60;93.10;;;;;;5064871;28;20439;-57
2022/06/30 07:33:44;;;;;;;0.38;0.38;;;26.60;93.10;;;;;;5061334;28;19935;-55
2022/06/30 07:36:12;;;;;;;0.32;0.32;;;26.60;93.20;;;;;;5056840;28;20147;-55
2022/06/30 07:38:41;;;;;;;1.48;0.75;;;26.60;93.20;;;;;;5068602;28;20527;-53
2022/06/30 07:41:08;;;;;;;0.20;0.20;;;26.60;93.20;;;;;;5055650;28;20049;-56
2022/06/30 07:43:36;;;;;;;0.30;0.30;;;26.70;93.20;;;;;;5054451;28;20060;-53
2022/06/30 07:46:04;;;;;;;1.45;0.65;;;26.70;93.30;;;;;;5048449;28;20041;-53
2022/06/30 07:48:32;;;;;;;0.20;0.20;;;26.70;93.30;;;;;;5048138;28;20049;-53
2022/06/30 07:50:59;;;;;;;0.20;0.20;;;26.70;93.30;;;;;;5047292;28;20041;-53
2022/06/30 07:53:27;;;;;;;;;;;26.70;93.30;;;;;;5049513;28;20044;-50
2022/06/30 07:55:54;;;;;;;0.65;0.40;;;26.70;93.30;;;;;;5054470;28;20023;-56
2022/06/30 07:58:21;;;;;;;0.20;0.20;;;26.70;93.30;;;;;;5049734;28;20044;-49
2022/06/30 08:00:49;;;;;;;1.77;0.60;;;26.70;93.30;;;;;;5053135;28;20063;-52
2022/06/30 08:03:17;;;;;;;0.30;0.30;;;26.70;93.40;;;;;;5050473;28;20044;-54
2022/06/30 08:05:44;;;;;;;0.20;0.20;;;26.70;93.40;;;;;;5048442;28;20052;-51
2022/06/30 08:08:12;;;;;;;1.58;0.90;;;26.70;93.40;;;;;;5047567;28;20045;-55
2022/06/30 08:10:39;;;;;;;0.50;0.50;;;26.80;93.40;;;;;;5048114;28;20303;-53
2022/06/30 08:13:06;;;;;;;0.20;0.20;;;26.70;93.40;;;;;;5047987;28;20063;-49
2022/06/30 08:15:34;;;;;;;0.57;0.57;;;26.70;93.40;;;;;;5049829;28;20057;-49
2022/06/30 08:18:02;;;;;;;;;;;26.80;93.40;;;;;;5049087;28;20158;-49
2022/06/30 08:20:30;;;;;;;0.25;0.25;;;26.70;93.40;;;;;;5051012;28;20359;-54
2022/06/30 08:22:57;;;;;;;1.65;0.85;;;26.80;93.40;;;;;;5046990;28;20051;-52
2022/06/30 08:25:25;;;;;;;;;;;26.80;93.40;;;;;;5047509;28;20079;-55
2022/06/30 08:27:53;;;;;;;0.65;0.65;;;26.80;93.40;;;;;;5054509;28;19927;-50
2022/06/30 08:30:20;;;;;;;0.63;0.63;;;26.80;93.40;;;;;;5047042;28;20055;-54
2022/06/30 08:32:47;;;;;;;0.20;0.20;;;26.80;93.40;;;;;;5048606;28;20051;-52
2022/06/30 08:35:15;;;;;;;0.63;0.63;;;26.80;93.40;;;;;;5062642;28;20076;-54
2022/06/30 08:37:42;;;;;;;;;;;26.80;93.40;;;;;;5047436;28;20053;-55
2022/06/30 08:42:59;;;;;;;0.20;0.20;;;26.80;93.50;;;;;;5048435;28;20415;-51
2022/06/30 08:45:30;;;;;;;0.30;0.30;;;26.80;93.50;;;;;;5056217;28;20047;-53
2022/06/30 08:47:57;;;;;;;0.70;0.47;;;26.80;93.50;;;;;;5052513;28;20452;-48
2022/06/30 08:50:25;;;;;;;0.40;0.40;;;26.80;93.50;;;;;;5046991;28;20535;-54
2022/06/30 08:52:53;;;;;;;;;;;26.80;93.50;;;;;;5059005;28;20049;-54
2022/06/30 08:55:27;;;;;;;0.20;0.20;;;26.80;93.50;;;;;;5051033;28;19958;-52
2022/06/30 08:58:04;;;;;;;0.52;0.52;;;26.80;93.50;;;;;;5047122;28;20057;-50
2022/06/30 09:00:33;;;;;;;1.00;0.97;;;26.80;93.40;;;;;;5057649;28;20037;-51
2022/06/30 09:03:01;;;;;;;0.20;0.20;;;26.90;93.50;;;;;;5046873;28;20040;-60
2022/06/30 09:05:29;;;;;;;0.40;0.30;;;26.90;93.50;;;;;;5056626;28;20041;-52
2022/06/30 09:07:56;;;;;;;;;;;26.90;93.50;;;;;;5059325;28;20049;-52
2022/06/30 09:10:52;;;;;;;1.45;0.73;;;26.90;93.50;;;;;;5049382;28;19924;-54
2022/06/30 09:13:20;;;;;;;0.55;0.55;;;26.90;93.50;;;;;;5050353;28;20056;-53
2022/06/30 09:15:49;;;;;;;0.43;0.43;;;26.90;93.50;;;;;;5059272;28;20064;-55
2022/06/30 09:18:28;;;;;;;2.00;1.38;;;26.90;93.50;;;;;;5054850;28;20060;-54
2022/06/30 09:20:56;;;;;;;0.20;0.20;;;26.90;93.50;;;;;;5047239;28;20060;-55
2022/06/30 09:23:30;;;;;;;1.27;0.93;;;26.90;93.50;;;;;;5045744;28;20044;-51
2022/06/30 09:26:00;;;;;;;0.20;0.20;;;26.90;93.50;;;;;;5047473;28;20045;-56
2022/06/30 09:28:44;;;;;;;0.22;0.22;;;26.90;93.50;;;;;;5046317;28;20432;-53
2022/06/30 09:31:42;;;;;;;0.30;0.30;;;26.90;93.50;;;;;;5048902;28;20049;-55
2022/06/30 09:34:16;;;;;;;0.75;0.60;;;26.90;93.50;;;;;;5059560;28;20044;-58
2022/06/30 09:36:52;;;;;;;0.30;0.30;;;26.90;93.50;;;;;;5050232;28;20060;-52
2022/06/30 09:39:21;;;;;;;0.90;0.40;;;26.90;93.40;;;;;;5052736;28;20509;-54
2022/06/30 09:41:51;;;;;;;0.47;0.43;;;26.90;93.40;;;;;;5056766;28;20041;-52
2022/06/30 09:44:23;;;;;;;0.30;0.30;;;26.90;93.40;;;;;;5058913;28;20053;-56
2022/06/30 09:46:59;;;;;;;0.38;0.38;;;26.90;93.40;;;;;;5051143;28;20048;-52
2022/06/30 09:49:49;;;;;;;0.65;0.52;;;26.90;93.40;;;;;;5050435;28;20053;-53
2022/06/30 09:52:21;;;;;;;0.40;0.40;;;26.90;93.40;;;;;;5058151;28;20048;-57
2022/06/30 09:55:00;;;;;;;1.55;0.63;;;26.90;93.40;;;;;;5049215;28;20429;-57
2022/06/30 09:57:36;;;;;;;;;;;26.90;93.40;;;;;;5051548;28;20052;-54
2022/06/30 10:00:06;;;;;;;0.60;0.32;;;26.90;93.40;;;;;;5060480;28;19931;-54
2022/06/30 10:02:41;;;;;;;0.28;0.28;;;26.90;93.40;;;;;;5051068;28;20072;-56
2022/06/30 10:05:10;;;;;;;0.50;0.50;;;26.90;93.40;;;;;;5061764;28;20037;-49
2022/06/30 10:07:38;;;;;;;0.30;0.30;;;26.90;93.40;;;;;;5049660;28;20048;-57
2022/06/30 10:10:11;;;;;;;1.02;0.50;;;26.90;93.40;;;;;;5050547;28;20061;-52
2022/06/30 10:12:40;;;;;;;0.20;0.20;;;26.90;93.40;;;;;;5054121;28;20076;-53
2022/06/30 10:15:08;;;;;;;0.85;0.70;;;26.90;93.40;;;;;;5061536;28;20040;-52
2022/06/30 10:17:43;;;;;;;1.35;0.65;;;26.90;93.40;;;;;;5049328;28;20044;-56
2022/06/30 10:20:22;;;;;;;0.88;0.60;;;26.90;93.40;;;;;;5051347;28;20523;-57
2022/06/30 10:22:49;;;;;;;0.32;0.32;;;26.90;93.40;;;;;;5049861;28;20051;-56
2022/06/30 10:25:17;;;;;;;0.30;0.30;;;26.90;93.40;;;;;;5049644;28;20045;-52
2022/06/30 10:27:49;;;;;;;0.45;0.45;;;26.90;93.40;;;;;;5052195;28;20056;-51
2022/06/30 10:30:21;;;;;;;0.20;0.20;;;26.90;93.40;;;;;;5056644;28;20048;-50
2022/06/30 10:33:06;;;;;;;0.60;0.60;;;26.90;93.40;;;;;;5051503;28;20094;-54
2022/06/30 10:35:38;;;;;;;0.10;0.10;;;26.90;93.40;;;;;;5050357;28;20072;-53
2022/06/30 10:38:31;;;;;;;0.47;0.47;;;26.90;93.40;;;;;;5050108;28;20080;-55
2022/06/30 10:41:11;;;;;;;0.20;0.20;;;26.90;93.40;;;;;;5053006;28;20126;-55
2022/06/30 10:44:03;;;;;;;0.25;0.25;;;26.90;93.40;;;;;;5057379;28;20499;-51
2022/06/30 10:46:34;;;;;;;0.55;0.40;;;26.90;93.40;;;;;;5049960;28;20053;-57
2022/06/30 10:49:10;;;;;;;0.32;0.32;;;26.90;93.30;;;;;;5049707;28;20060;-53
2022/06/30 10:51:38;;;;;;;0.50;0.50;;;26.90;93.30;;;;;;5050899;28;20048;-55
2022/06/30 10:54:06;;;;;;;0.60;0.60;;;26.90;93.30;;;;;;5064799;28;20519;-51
2022/06/30 10:57:01;;;;;;;0.80;0.30;;;26.90;93.30;;;;;;5063658;28;20056;-53
2022/06/30 10:59:34;;;;;;;0.75;0.50;;;27.00;93.30;;;;;;5053321;28;20044;-51
2022/06/30 11:02:08;;;;;;;0.45;0.45;;;26.90;93.30;;;;;;5053704;28;20045;-50
2022/06/30 11:04:47;;;;;;;0.47;0.47;;;27.00;93.30;;;;;;5063498;28;20500;-56
2022/06/30 11:07:19;;;;;;;0.52;0.35;;;27.00;93.30;;;;;;5056641;28;20063;-51
2022/06/30 11:09:47;;;;;;;0.20;0.20;;;26.90;93.30;;;;;;5049226;28;20052;-53
2022/06/30 11:12:18;;;;;;;0.60;0.60;;;27.00;93.30;;;;;;5051543;28;20044;-53
2022/06/30 11:14:53;;;;;;;0.30;0.30;;;27.00;93.30;;;;;;5054274;28;20053;-53
2022/06/30 11:17:39;;;;;;;0.95;0.73;;;27.00;93.30;;;;;;5048253;28;20480;-54
2022/06/30 11:20:11;;;;;;;0.60;0.60;;;26.90;93.20;;;;;;5051191;28;20049;-54
2022/06/30 11:22:41;;;;;;;1.20;0.90;;;27.00;93.30;;;;;;5047398;28;20075;-56
2022/06/30 11:28:01;;;;;;;0.30;0.30;;;27.00;93.20;;;;;;5057020;28;20048;-54
2022/06/30 11:30:31;;;;;;;0.50;0.50;;;27.00;93.20;;;;;;5064236;28;20047;-51
2022/06/30 11:32:59;;;;;;;0.40;0.40;;;27.00;93.20;;;;;;5052922;28;20389;-54
2022/06/30 11:35:30;;;;;;;0.40;0.40;;;27.00;93.20;;;;;;5052333;28;20451;-51
2022/06/30 11:37:58;;;;;;;0.40;0.40;;;27.00;93.20;;;;;;5048092;28;20044;-53
2022/06/30 11:40:29;;;;;;;0.20;0.20;;;27.00;93.20;;;;;;5048089;28;20053;-56
2022/06/30 11:42:56;;;;;;;0.20;0.20;;;27.00;93.10;;;;;;5052178;28;20535;-54
2022/06/30 11:45:25;;;;;;;0.20;0.20;;;27.00;93.10;;;;;;5047229;28;20036;-55
2022/06/30 11:48:00;;;;;;;0.20;0.20;;;27.00;93.10;;;;;;5047161;28;20060;-52
2022/06/30 11:50:27;;;;;;;0.20;0.20;;;27.00;93.10;;;;;;5049544;28;20041;-55
2022/06/30 11:52:58;;;;;;;0.73;0.70;;;27.00;93.10;;;;;;5047782;28;20045;-52
2022/06/30 11:55:27;;;;;;;0.20;0.20;;;27.00;93.10;;;;;;5058323;28;20051;-51
2022/06/30 11:57:56;;;;;;;1.25;0.75;;;27.00;93.10;;;;;;5061427;28;20060;-50
2022/06/30 12:00:27;;;;;;;0.47;0.47;;;27.00;93.10;;;;;;5039542;28;20049;-50
2022/06/30 12:02:55;;;;;;;0.20;0.20;;;27.00;93.10;;;;;;5048500;28;20044;-52
2022/06/30 12:05:27;;;;;;;0.28;0.28;;;27.00;93.10;;;;;;5059469;28;20067;-49
2022/06/30 12:07:55;;;;;;;0.45;0.38;;;27.00;93.10;;;;;;5047808;28;20044;-55
2022/06/30 12:10:24;;;;;;;0.90;0.52;;;27.00;93.10;;;;;;5048174;28;20036;-53
2022/06/30 12:12:58;;;;;;;1.15;0.73;;;27.00;93.10;;;;;;5050776;28;20049;-55
2022/06/30 12:15:26;;;;;;;0.20;0.20;;;27.00;93.00;;;;;;5047450;28;20059;-53
2022/06/30 12:17:56;;;;;;;0.73;0.73;;;27.00;93.00;;;;;;5047691;28;20060;-51
2022/06/30 12:20:27;;;;;;;0.52;0.52;;;27.00;93.00;;;;;;5056514;28;20048;-54
2022/06/30 12:22:56;;;;;;;0.47;0.40;;;27.00;93.00;;;;;;5053257;28;20049;-56
2022/06/30 12:25:24;;;;;;;0.85;0.55;;;27.10;93.10;;;;;;5047414;28;20389;-55
2022/06/30 12:27:53;;;;;;;0.20;0.20;;;27.00;93.00;;;;;;5048753;28;20083;-55
2022/06/30 12:30:31;;;;;;;0.20;0.20;;;27.00;93.00;;;;;;5065244;28;20059;-51
2022/06/30 12:33:01;;;;;;;1.55;0.43;;;27.00;93.00;;;;;;5046693;28;20033;-53
2022/06/30 12:35:32;;;;;;;0.93;0.50;;;27.10;93.00;;;;;;5048437;28;20056;-51
2022/06/30 12:38:11;;;;;;;0.20;0.20;;;27.10;93.00;;;;;;5050674;28;20079;-49
2022/06/30 12:40:39;;;;;;;0.20;0.20;;;27.10;93.00;;;;;;5052191;28;20055;-55
2022/06/30 12:43:18;;;;;;;0.32;0.32;;;27.10;93.00;;;;;;5058560;28;20067;-53
2022/06/30 12:46:00;;;;;;;0.40;0.40;;;27.10;92.90;;;;;;5045761;28;20158;-54
2022/06/30 12:48:50;;;;;;;0.35;0.35;;;27.10;92.90;;;;;;5046957;28;20366;-53
2022/06/30 12:51:35;;;;;;;0.30;0.30;;;27.10;92.90;;;;;;5049892;28;20053;-51
2022/06/30 12:54:10;;;;;;;1.58;1.15;;;27.10;92.90;;;;;;5048479;28;20055;-51
2022/06/30 12:56:39;;;;;;;0.45;0.28;;;27.10;92.80;;;;;;5052057;28;20056;-55
2022/06/30 12:59:13;;;;;;;1.48;0.60;;;27.20;92.80;;;;;;5049140;28;20048;-54
2022/06/30 13:01:46;;;;;;;0.20;0.20;;;27.20;92.80;;;;;;5050423;28;20060;-51
2022/06/30 13:04:22;;;;;;;0.52;0.43;;;27.20;92.80;;;;;;5052538;28;20044;-54
2022/06/30 13:06:53;;;;;;;0.85;0.85;;;27.20;92.80;;;;;;5047844;28;20052;-50
2022/06/30 13:09:28;;;;;;;0.20;0.20;;;27.20;92.80;;;;;;5049168;28;20068;-53
2022/06/30 13:12:00;;;;;;;0.30;0.30;;;27.30;92.80;;;;;;5047104;28;20063;-53
2022/06/30 13:14:30;;;;;;;0.20;0.20;;;27.30;92.70;;;;;;5058760;28;20067;-54
2022/06/30 13:17:00;;;;;;;1.25;0.60;;;27.30;92.70;;;;;;5059505;28;20056;-53
2022/06/30 13:19:29;;;;;;;0.35;0.35;;;27.30;92.70;;;;;;5046577;28;20049;-54
2022/06/30 13:21:58;;;;;;;0.30;0.30;;;27.40;92.60;;;;;;5049207;28;20370;-53
2022/06/30 13:24:33;;;;;;;1.35;0.47;;;27.40;92.60;;;;;;5051756;28;20048;-51